sensor_id;sensor_type;location;lat;lon;timestamp;P1;durP1;ratioP1;P2;durP2;ratioP2
16796;SDS011;8515;51.064;4.580;2022-09-09T00:01:46;5.85;;;2.58;;
16796;SDS011;8515;51.064;4.580;2022-09-09T00:04:21;4.35;;;2.40;;
16796;SDS011;8515;51.064;4.580;2022-09-09T00:06:59;7.40;;;2.40;;
16796;SDS011;8515;51.064;4.580;2022-09-09T00:09:31;8.52;;;2.60;;
16796;SDS011;8515;51.064;4.580;2022-09-09T00:12:08;8.55;;;2.47;;
16796;SDS011;8515;51.064;4.580;2022-09-09T00:14:39;6.32;;;2.85;;
16796;SDS011;8515;51.064;4.580;2022-09-09T00:17:12;8.30;;;2.40;;
16796;SDS011;8515;51.064;4.580;2022-09-09T00:19:44;6.55;;;2.38;;
16796;SDS011;8515;51.064;4.580;2022-09-09T00:22:20;8.02;;;2.67;;
16796;SDS011;8515;51.064;4.580;2022-09-09T00:24:51;6.57;;;2.40;;
16796;SDS011;8515;51.064;4.580;2022-09-09T00:27:22;5.88;;;2.80;;
16796;SDS011;8515;51.064;4.580;2022-09-09T00:29:56;8.68;;;2.80;;
16796;SDS011;8515;51.064;4.580;2022-09-09T00:32:28;3.80;;;2.50;;
16796;SDS011;8515;51.064;4.580;2022-09-09T00:34:58;5.95;;;2.60;;
16796;SDS011;8515;51.064;4.580;2022-09-09T00:37:29;6.82;;;2.67;;
16796;SDS011;8515;51.064;4.580;2022-09-09T00:39:59;3.42;;;2.20;;
16796;SDS011;8515;51.064;4.580;2022-09-09T00:42:32;5.72;;;2.42;;
16796;SDS011;8515;51.064;4.580;2022-09-09T00:45:11;10.10;;;2.70;;
16796;SDS011;8515;51.064;4.580;2022-09-09T00:47:53;6.47;;;2.50;;
16796;SDS011;8515;51.064;4.580;2022-09-09T00:50:34;5.30;;;2.70;;
16796;SDS011;8515;51.064;4.580;2022-09-09T00:53:12;6.15;;;2.50;;
16796;SDS011;8515;51.064;4.580;2022-09-09T00:55:52;8.27;;;2.50;;
16796;SDS011;8515;51.064;4.580;2022-09-09T00:58:29;10.98;;;2.55;;
16796;SDS011;8515;51.064;4.580;2022-09-09T01:00:57;4.90;;;2.42;;
16796;SDS011;8515;51.064;4.580;2022-09-09T01:03:33;6.82;;;2.55;;
16796;SDS011;8515;51.064;4.580;2022-09-09T01:06:02;8.30;;;2.65;;
16796;SDS011;8515;51.064;4.580;2022-09-09T01:08:56;11.05;;;2.55;;
16796;SDS011;8515;51.064;4.580;2022-09-09T01:11:32;12.88;;;2.85;;
16796;SDS011;8515;51.064;4.580;2022-09-09T01:14:18;9.18;;;2.75;;
16796;SDS011;8515;51.064;4.580;2022-09-09T01:16:54;9.52;;;2.65;;
16796;SDS011;8515;51.064;4.580;2022-09-09T01:19:27;6.22;;;2.50;;
16796;SDS011;8515;51.064;4.580;2022-09-09T01:22:07;11.77;;;2.83;;
16796;SDS011;8515;51.064;4.580;2022-09-09T01:24:42;8.10;;;2.67;;
16796;SDS011;8515;51.064;4.580;2022-09-09T01:27:18;9.13;;;2.85;;
16796;SDS011;8515;51.064;4.580;2022-09-09T01:29:47;12.35;;;2.55;;
16796;SDS011;8515;51.064;4.580;2022-09-09T01:32:37;7.07;;;2.65;;
16796;SDS011;8515;51.064;4.580;2022-09-09T01:35:07;6.50;;;2.53;;
16796;SDS011;8515;51.064;4.580;2022-09-09T01:37:38;7.60;;;2.38;;
16796;SDS011;8515;51.064;4.580;2022-09-09T01:40:05;8.60;;;2.67;;
16796;SDS011;8515;51.064;4.580;2022-09-09T01:42:34;8.85;;;2.67;;
16796;SDS011;8515;51.064;4.580;2022-09-09T01:45:02;5.80;;;2.70;;
16796;SDS011;8515;51.064;4.580;2022-09-09T01:47:30;5.82;;;2.50;;
16796;SDS011;8515;51.064;4.580;2022-09-09T01:49:57;8.95;;;2.40;;
16796;SDS011;8515;51.064;4.580;2022-09-09T01:52:25;6.88;;;2.30;;
16796;SDS011;8515;51.064;4.580;2022-09-09T01:54:52;5.47;;;2.63;;
16796;SDS011;8515;51.064;4.580;2022-09-09T01:57:20;8.30;;;2.60;;
16796;SDS011;8515;51.064;4.580;2022-09-09T01:59:57;8.00;;;2.83;;
16796;SDS011;8515;51.064;4.580;2022-09-09T02:02:32;10.57;;;2.47;;
16796;SDS011;8515;51.064;4.580;2022-09-09T02:05:08;8.07;;;2.45;;
16796;SDS011;8515;51.064;4.580;2022-09-09T02:07:44;7.43;;;2.25;;
16796;SDS011;8515;51.064;4.580;2022-09-09T02:10:15;12.45;;;2.88;;
16796;SDS011;8515;51.064;4.580;2022-09-09T02:12:46;16.30;;;2.35;;
16796;SDS011;8515;51.064;4.580;2022-09-09T02:15:22;8.30;;;2.53;;
16796;SDS011;8515;51.064;4.580;2022-09-09T02:18:00;10.45;;;2.58;;
16796;SDS011;8515;51.064;4.580;2022-09-09T02:20:32;9.77;;;3.00;;
16796;SDS011;8515;51.064;4.580;2022-09-09T02:22:59;8.70;;;2.92;;
16796;SDS011;8515;51.064;4.580;2022-09-09T02:25:28;8.18;;;2.70;;
16796;SDS011;8515;51.064;4.580;2022-09-09T02:27:55;10.88;;;2.67;;
16796;SDS011;8515;51.064;4.580;2022-09-09T02:30:25;11.15;;;2.80;;
16796;SDS011;8515;51.064;4.580;2022-09-09T02:32:54;10.23;;;2.92;;
16796;SDS011;8515;51.064;4.580;2022-09-09T02:35:24;9.63;;;3.00;;
16796;SDS011;8515;51.064;4.580;2022-09-09T02:37:52;12.20;;;3.03;;
16796;SDS011;8515;51.064;4.580;2022-09-09T02:40:24;8.75;;;2.95;;
16796;SDS011;8515;51.064;4.580;2022-09-09T02:42:51;10.75;;;3.03;;
16796;SDS011;8515;51.064;4.580;2022-09-09T02:45:22;10.30;;;2.88;;
16796;SDS011;8515;51.064;4.580;2022-09-09T02:47:56;13.90;;;3.40;;
16796;SDS011;8515;51.064;4.580;2022-09-09T02:50:29;14.68;;;3.63;;
16796;SDS011;8515;51.064;4.580;2022-09-09T02:53:02;9.38;;;3.20;;
16796;SDS011;8515;51.064;4.580;2022-09-09T02:55:38;16.08;;;3.65;;
16796;SDS011;8515;51.064;4.580;2022-09-09T02:58:09;14.35;;;3.20;;
16796;SDS011;8515;51.064;4.580;2022-09-09T03:00:39;12.48;;;3.10;;
16796;SDS011;8515;51.064;4.580;2022-09-09T03:03:07;7.53;;;3.17;;
16796;SDS011;8515;51.064;4.580;2022-09-09T03:05:35;14.00;;;3.08;;
16796;SDS011;8515;51.064;4.580;2022-09-09T03:08:02;14.77;;;3.58;;
16796;SDS011;8515;51.064;4.580;2022-09-09T03:10:30;18.90;;;3.72;;
16796;SDS011;8515;51.064;4.580;2022-09-09T03:12:57;11.88;;;3.03;;
16796;SDS011;8515;51.064;4.580;2022-09-09T03:15:24;13.45;;;3.17;;
16796;SDS011;8515;51.064;4.580;2022-09-09T03:17:55;8.77;;;3.03;;
16796;SDS011;8515;51.064;4.580;2022-09-09T03:20:23;9.48;;;2.90;;
16796;SDS011;8515;51.064;4.580;2022-09-09T03:22:50;11.68;;;3.17;;
16796;SDS011;8515;51.064;4.580;2022-09-09T03:25:17;14.75;;;3.60;;
16796;SDS011;8515;51.064;4.580;2022-09-09T03:27:45;12.50;;;3.30;;
16796;SDS011;8515;51.064;4.580;2022-09-09T03:30:12;11.10;;;3.40;;
16796;SDS011;8515;51.064;4.580;2022-09-09T03:32:39;16.38;;;4.03;;
16796;SDS011;8515;51.064;4.580;2022-09-09T03:35:08;16.38;;;3.58;;
16796;SDS011;8515;51.064;4.580;2022-09-09T03:37:35;17.27;;;3.60;;
16796;SDS011;8515;51.064;4.580;2022-09-09T03:40:04;12.68;;;3.67;;
16796;SDS011;8515;51.064;4.580;2022-09-09T03:42:31;10.98;;;3.60;;
16796;SDS011;8515;51.064;4.580;2022-09-09T03:44:58;18.50;;;3.80;;
16796;SDS011;8515;51.064;4.580;2022-09-09T03:47:25;12.35;;;3.70;;
16796;SDS011;8515;51.064;4.580;2022-09-09T03:49:52;14.02;;;3.63;;
16796;SDS011;8515;51.064;4.580;2022-09-09T03:52:20;12.75;;;3.20;;
16796;SDS011;8515;51.064;4.580;2022-09-09T03:54:50;12.23;;;3.70;;
16796;SDS011;8515;51.064;4.580;2022-09-09T03:57:17;14.15;;;3.42;;
16796;SDS011;8515;51.064;4.580;2022-09-09T03:59:44;16.23;;;3.50;;
16796;SDS011;8515;51.064;4.580;2022-09-09T04:02:11;12.93;;;3.60;;
16796;SDS011;8515;51.064;4.580;2022-09-09T04:04:38;12.98;;;4.15;;
16796;SDS011;8515;51.064;4.580;2022-09-09T04:07:05;19.67;;;3.78;;
16796;SDS011;8515;51.064;4.580;2022-09-09T04:09:33;18.67;;;3.60;;
16796;SDS011;8515;51.064;4.580;2022-09-09T04:12:01;14.57;;;3.53;;
16796;SDS011;8515;51.064;4.580;2022-09-09T04:14:28;14.02;;;3.88;;
16796;SDS011;8515;51.064;4.580;2022-09-09T04:16:55;15.13;;;3.78;;
16796;SDS011;8515;51.064;4.580;2022-09-09T04:19:22;14.05;;;3.20;;
16796;SDS011;8515;51.064;4.580;2022-09-09T04:21:49;10.50;;;3.15;;
16796;SDS011;8515;51.064;4.580;2022-09-09T04:24:17;13.43;;;3.58;;
16796;SDS011;8515;51.064;4.580;2022-09-09T04:26:45;17.40;;;3.60;;
16796;SDS011;8515;51.064;4.580;2022-09-09T04:29:12;15.30;;;3.47;;
16796;SDS011;8515;51.064;4.580;2022-09-09T04:31:39;25.65;;;4.13;;
16796;SDS011;8515;51.064;4.580;2022-09-09T04:34:07;15.52;;;4.00;;
16796;SDS011;8515;51.064;4.580;2022-09-09T04:36:34;12.45;;;3.63;;
16796;SDS011;8515;51.064;4.580;2022-09-09T04:39:01;13.82;;;3.58;;
16796;SDS011;8515;51.064;4.580;2022-09-09T04:41:28;11.40;;;3.53;;
16796;SDS011;8515;51.064;4.580;2022-09-09T04:43:57;11.75;;;4.18;;
16796;SDS011;8515;51.064;4.580;2022-09-09T04:46:25;14.85;;;3.40;;
16796;SDS011;8515;51.064;4.580;2022-09-09T04:48:53;15.70;;;3.90;;
16796;SDS011;8515;51.064;4.580;2022-09-09T04:51:20;17.85;;;3.83;;
16796;SDS011;8515;51.064;4.580;2022-09-09T04:53:46;22.35;;;4.25;;
16796;SDS011;8515;51.064;4.580;2022-09-09T04:56:16;22.52;;;3.78;;
16796;SDS011;8515;51.064;4.580;2022-09-09T04:58:43;17.27;;;3.63;;
16796;SDS011;8515;51.064;4.580;2022-09-09T05:01:13;11.63;;;3.72;;
16796;SDS011;8515;51.064;4.580;2022-09-09T05:03:42;12.75;;;3.65;;
16796;SDS011;8515;51.064;4.580;2022-09-09T05:06:10;16.05;;;3.92;;
16796;SDS011;8515;51.064;4.580;2022-09-09T05:08:39;18.15;;;4.05;;
16796;SDS011;8515;51.064;4.580;2022-09-09T05:11:14;26.48;;;4.20;;
16796;SDS011;8515;51.064;4.580;2022-09-09T05:13:43;23.10;;;4.18;;
16796;SDS011;8515;51.064;4.580;2022-09-09T05:16:11;13.63;;;3.92;;
16796;SDS011;8515;51.064;4.580;2022-09-09T05:18:39;11.63;;;3.88;;
16796;SDS011;8515;51.064;4.580;2022-09-09T05:21:07;15.18;;;4.30;;
16796;SDS011;8515;51.064;4.580;2022-09-09T05:23:35;19.92;;;3.72;;
16796;SDS011;8515;51.064;4.580;2022-09-09T05:26:03;27.88;;;4.65;;
16796;SDS011;8515;51.064;4.580;2022-09-09T05:28:30;14.55;;;3.65;;
16796;SDS011;8515;51.064;4.580;2022-09-09T05:31:00;19.95;;;4.60;;
16796;SDS011;8515;51.064;4.580;2022-09-09T05:33:31;15.93;;;3.90;;
16796;SDS011;8515;51.064;4.580;2022-09-09T05:35:58;17.85;;;3.95;;
16796;SDS011;8515;51.064;4.580;2022-09-09T05:38:26;14.68;;;3.80;;
16796;SDS011;8515;51.064;4.580;2022-09-09T05:40:54;20.48;;;4.38;;
16796;SDS011;8515;51.064;4.580;2022-09-09T05:43:21;21.15;;;4.05;;
16796;SDS011;8515;51.064;4.580;2022-09-09T05:45:58;24.27;;;4.30;;
16796;SDS011;8515;51.064;4.580;2022-09-09T05:48:27;19.63;;;4.55;;
16796;SDS011;8515;51.064;4.580;2022-09-09T05:50:56;15.13;;;3.80;;
16796;SDS011;8515;51.064;4.580;2022-09-09T05:53:23;16.05;;;4.22;;
16796;SDS011;8515;51.064;4.580;2022-09-09T05:55:50;12.55;;;3.80;;
16796;SDS011;8515;51.064;4.580;2022-09-09T05:58:17;17.65;;;4.00;;
16796;SDS011;8515;51.064;4.580;2022-09-09T06:00:44;15.95;;;3.35;;
16796;SDS011;8515;51.064;4.580;2022-09-09T06:03:11;19.00;;;3.88;;
16796;SDS011;8515;51.064;4.580;2022-09-09T06:05:38;18.08;;;3.92;;
16796;SDS011;8515;51.064;4.580;2022-09-09T06:08:06;18.65;;;4.18;;
16796;SDS011;8515;51.064;4.580;2022-09-09T06:10:33;16.73;;;4.20;;
16796;SDS011;8515;51.064;4.580;2022-09-09T06:13:01;13.95;;;3.30;;
16796;SDS011;8515;51.064;4.580;2022-09-09T06:15:28;12.88;;;4.32;;
16796;SDS011;8515;51.064;4.580;2022-09-09T06:17:55;22.27;;;4.68;;
16796;SDS011;8515;51.064;4.580;2022-09-09T06:20:22;19.02;;;4.75;;
16796;SDS011;8515;51.064;4.580;2022-09-09T06:22:50;17.25;;;4.03;;
16796;SDS011;8515;51.064;4.580;2022-09-09T06:25:18;16.17;;;4.07;;
16796;SDS011;8515;51.064;4.580;2022-09-09T06:27:48;14.50;;;3.83;;
16796;SDS011;8515;51.064;4.580;2022-09-09T06:30:15;23.27;;;4.65;;
16796;SDS011;8515;51.064;4.580;2022-09-09T06:32:43;20.00;;;4.00;;
16796;SDS011;8515;51.064;4.580;2022-09-09T06:35:10;14.38;;;3.90;;
16796;SDS011;8515;51.064;4.580;2022-09-09T06:37:38;14.30;;;3.40;;
16796;SDS011;8515;51.064;4.580;2022-09-09T06:40:09;17.30;;;3.70;;
16796;SDS011;8515;51.064;4.580;2022-09-09T06:42:38;15.95;;;4.20;;
16796;SDS011;8515;51.064;4.580;2022-09-09T06:45:05;13.48;;;3.40;;
16796;SDS011;8515;51.064;4.580;2022-09-09T06:47:33;19.05;;;3.97;;
16796;SDS011;8515;51.064;4.580;2022-09-09T06:50:00;15.30;;;3.83;;
16796;SDS011;8515;51.064;4.580;2022-09-09T06:52:27;18.30;;;3.88;;
16796;SDS011;8515;51.064;4.580;2022-09-09T06:54:54;7.90;;;3.13;;
16796;SDS011;8515;51.064;4.580;2022-09-09T06:57:23;15.05;;;3.55;;
16796;SDS011;8515;51.064;4.580;2022-09-09T06:59:51;16.02;;;3.65;;
16796;SDS011;8515;51.064;4.580;2022-09-09T07:02:18;13.52;;;2.85;;
16796;SDS011;8515;51.064;4.580;2022-09-09T07:04:45;14.82;;;2.75;;
16796;SDS011;8515;51.064;4.580;2022-09-09T07:07:12;12.13;;;3.42;;
16796;SDS011;8515;51.064;4.580;2022-09-09T07:09:40;16.38;;;3.08;;
16796;SDS011;8515;51.064;4.580;2022-09-09T07:12:07;9.88;;;2.90;;
16796;SDS011;8515;51.064;4.580;2022-09-09T07:14:34;13.07;;;3.00;;
16796;SDS011;8515;51.064;4.580;2022-09-09T07:17:03;15.30;;;2.85;;
16796;SDS011;8515;51.064;4.580;2022-09-09T07:19:30;8.95;;;2.70;;
16796;SDS011;8515;51.064;4.580;2022-09-09T07:21:59;9.75;;;2.85;;
16796;SDS011;8515;51.064;4.580;2022-09-09T07:24:27;8.27;;;2.75;;
16796;SDS011;8515;51.064;4.580;2022-09-09T07:26:55;9.95;;;2.88;;
16796;SDS011;8515;51.064;4.580;2022-09-09T07:29:22;24.90;;;3.53;;
16796;SDS011;8515;51.064;4.580;2022-09-09T07:31:49;11.07;;;2.80;;
16796;SDS011;8515;51.064;4.580;2022-09-09T07:34:17;12.88;;;3.10;;
16796;SDS011;8515;51.064;4.580;2022-09-09T07:36:44;12.60;;;2.80;;
16796;SDS011;8515;51.064;4.580;2022-09-09T07:39:12;8.75;;;2.95;;
16796;SDS011;8515;51.064;4.580;2022-09-09T07:41:41;15.98;;;2.97;;
16796;SDS011;8515;51.064;4.580;2022-09-09T07:44:09;9.48;;;2.50;;
16796;SDS011;8515;51.064;4.580;2022-09-09T07:46:38;12.35;;;3.28;;
16796;SDS011;8515;51.064;4.580;2022-09-09T07:49:06;8.45;;;2.70;;
16796;SDS011;8515;51.064;4.580;2022-09-09T07:51:36;15.48;;;2.50;;
16796;SDS011;8515;51.064;4.580;2022-09-09T07:54:04;8.93;;;2.30;;
16796;SDS011;8515;51.064;4.580;2022-09-09T07:56:32;9.15;;;2.33;;
16796;SDS011;8515;51.064;4.580;2022-09-09T07:59:00;10.20;;;2.70;;
16796;SDS011;8515;51.064;4.580;2022-09-09T08:01:29;10.75;;;2.38;;
16796;SDS011;8515;51.064;4.580;2022-09-09T08:03:58;13.20;;;2.85;;
16796;SDS011;8515;51.064;4.580;2022-09-09T08:06:27;10.73;;;2.70;;
16796;SDS011;8515;51.064;4.580;2022-09-09T08:08:56;9.88;;;2.88;;
16796;SDS011;8515;51.064;4.580;2022-09-09T08:11:23;14.93;;;2.33;;
16796;SDS011;8515;51.064;4.580;2022-09-09T08:13:51;14.77;;;2.50;;
16796;SDS011;8515;51.064;4.580;2022-09-09T08:16:20;12.10;;;2.95;;
16796;SDS011;8515;51.064;4.580;2022-09-09T08:18:48;12.45;;;2.58;;
16796;SDS011;8515;51.064;4.580;2022-09-09T08:21:15;11.80;;;2.53;;
16796;SDS011;8515;51.064;4.580;2022-09-09T08:23:44;7.80;;;2.50;;
16796;SDS011;8515;51.064;4.580;2022-09-09T08:26:15;7.10;;;2.50;;
16796;SDS011;8515;51.064;4.580;2022-09-09T08:28:44;11.52;;;2.47;;
16796;SDS011;8515;51.064;4.580;2022-09-09T08:31:12;15.15;;;2.92;;
16796;SDS011;8515;51.064;4.580;2022-09-09T08:33:41;7.50;;;2.13;;
16796;SDS011;8515;51.064;4.580;2022-09-09T08:36:11;12.27;;;2.22;;
16796;SDS011;8515;51.064;4.580;2022-09-09T08:38:40;8.23;;;2.42;;
16796;SDS011;8515;51.064;4.580;2022-09-09T08:41:12;11.73;;;2.80;;
16796;SDS011;8515;51.064;4.580;2022-09-09T08:43:58;9.02;;;2.22;;
16796;SDS011;8515;51.064;4.580;2022-09-09T08:46:32;13.30;;;2.67;;
16796;SDS011;8515;51.064;4.580;2022-09-09T08:49:13;11.93;;;2.72;;
16796;SDS011;8515;51.064;4.580;2022-09-09T08:52:06;8.50;;;2.35;;
16796;SDS011;8515;51.064;4.580;2022-09-09T08:54:40;10.60;;;2.65;;
16796;SDS011;8515;51.064;4.580;2022-09-09T08:57:11;6.72;;;2.50;;
16796;SDS011;8515;51.064;4.580;2022-09-09T08:59:42;11.85;;;2.65;;
16796;SDS011;8515;51.064;4.580;2022-09-09T09:02:13;9.88;;;2.45;;
16796;SDS011;8515;51.064;4.580;2022-09-09T09:04:51;11.20;;;2.33;;
16796;SDS011;8515;51.064;4.580;2022-09-09T09:07:33;11.60;;;2.85;;
16796;SDS011;8515;51.064;4.580;2022-09-09T09:10:10;9.55;;;2.22;;
16796;SDS011;8515;51.064;4.580;2022-09-09T09:12:46;7.43;;;2.75;;
16796;SDS011;8515;51.064;4.580;2022-09-09T09:15:16;6.55;;;2.58;;
16796;SDS011;8515;51.064;4.580;2022-09-09T09:17:46;13.43;;;3.22;;
16796;SDS011;8515;51.064;4.580;2022-09-09T09:20:14;12.27;;;2.75;;
16796;SDS011;8515;51.064;4.580;2022-09-09T09:22:47;13.10;;;2.67;;
16796;SDS011;8515;51.064;4.580;2022-09-09T09:25:18;7.22;;;2.60;;
16796;SDS011;8515;51.064;4.580;2022-09-09T09:27:52;10.05;;;2.53;;
16796;SDS011;8515;51.064;4.580;2022-09-09T09:30:26;8.98;;;2.97;;
16796;SDS011;8515;51.064;4.580;2022-09-09T09:32:58;11.90;;;2.83;;
16796;SDS011;8515;51.064;4.580;2022-09-09T09:35:28;10.35;;;3.03;;
16796;SDS011;8515;51.064;4.580;2022-09-09T09:37:55;12.77;;;2.85;;
16796;SDS011;8515;51.064;4.580;2022-09-09T09:40:22;7.05;;;2.13;;
16796;SDS011;8515;51.064;4.580;2022-09-09T09:42:52;7.38;;;2.55;;
16796;SDS011;8515;51.064;4.580;2022-09-09T09:45:28;7.35;;;2.60;;
16796;SDS011;8515;51.064;4.580;2022-09-09T09:47:59;10.15;;;2.67;;
16796;SDS011;8515;51.064;4.580;2022-09-09T09:50:28;9.65;;;2.75;;
16796;SDS011;8515;51.064;4.580;2022-09-09T09:52:56;8.68;;;2.33;;
16796;SDS011;8515;51.064;4.580;2022-09-09T09:55:25;10.68;;;2.33;;
16796;SDS011;8515;51.064;4.580;2022-09-09T09:57:53;9.98;;;2.42;;
16796;SDS011;8515;51.064;4.580;2022-09-09T10:00:26;9.70;;;2.85;;
16796;SDS011;8515;51.064;4.580;2022-09-09T10:02:53;15.68;;;2.70;;
16796;SDS011;8515;51.064;4.580;2022-09-09T10:05:22;7.35;;;2.45;;
16796;SDS011;8515;51.064;4.580;2022-09-09T10:08:00;7.50;;;2.70;;
16796;SDS011;8515;51.064;4.580;2022-09-09T10:10:34;12.35;;;2.53;;
16796;SDS011;8515;51.064;4.580;2022-09-09T10:13:18;10.00;;;2.40;;
16796;SDS011;8515;51.064;4.580;2022-09-09T10:15:52;15.75;;;2.83;;
16796;SDS011;8515;51.064;4.580;2022-09-09T10:18:36;10.35;;;3.00;;
16796;SDS011;8515;51.064;4.580;2022-09-09T10:21:12;10.65;;;2.65;;
16796;SDS011;8515;51.064;4.580;2022-09-09T10:23:58;10.07;;;2.58;;
16796;SDS011;8515;51.064;4.580;2022-09-09T10:26:35;12.45;;;2.67;;
16796;SDS011;8515;51.064;4.580;2022-09-09T10:29:18;9.13;;;2.42;;
16796;SDS011;8515;51.064;4.580;2022-09-09T10:31:59;7.40;;;2.03;;
16796;SDS011;8515;51.064;4.580;2022-09-09T10:34:43;13.15;;;2.97;;
16796;SDS011;8515;51.064;4.580;2022-09-09T10:37:23;7.13;;;2.22;;
16796;SDS011;8515;51.064;4.580;2022-09-09T10:40:02;5.47;;;2.20;;
16796;SDS011;8515;51.064;4.580;2022-09-09T10:42:38;9.38;;;2.50;;
16796;SDS011;8515;51.064;4.580;2022-09-09T10:45:10;10.77;;;2.30;;
16796;SDS011;8515;51.064;4.580;2022-09-09T10:47:58;7.25;;;2.25;;
16796;SDS011;8515;51.064;4.580;2022-09-09T10:50:40;8.38;;;2.20;;
16796;SDS011;8515;51.064;4.580;2022-09-09T10:53:14;7.60;;;1.95;;
16796;SDS011;8515;51.064;4.580;2022-09-09T10:55:51;10.85;;;2.55;;
16796;SDS011;8515;51.064;4.580;2022-09-09T10:58:23;7.43;;;2.15;;
16796;SDS011;8515;51.064;4.580;2022-09-09T11:00:57;6.80;;;1.98;;
16796;SDS011;8515;51.064;4.580;2022-09-09T11:03:29;12.23;;;2.40;;
16796;SDS011;8515;51.064;4.580;2022-09-09T11:06:00;8.25;;;1.98;;
16796;SDS011;8515;51.064;4.580;2022-09-09T11:08:32;10.30;;;2.40;;
16796;SDS011;8515;51.064;4.580;2022-09-09T11:11:02;10.23;;;2.22;;
16796;SDS011;8515;51.064;4.580;2022-09-09T11:13:33;10.85;;;2.40;;
16796;SDS011;8515;51.064;4.580;2022-09-09T11:16:10;8.73;;;2.17;;
16796;SDS011;8515;51.064;4.580;2022-09-09T11:18:43;9.15;;;2.20;;
16796;SDS011;8515;51.064;4.580;2022-09-09T11:21:14;11.32;;;2.38;;
16796;SDS011;8515;51.064;4.580;2022-09-09T11:23:46;8.00;;;2.25;;
16796;SDS011;8515;51.064;4.580;2022-09-09T11:26:21;7.15;;;2.10;;
16796;SDS011;8515;51.064;4.580;2022-09-09T11:29:06;8.60;;;2.28;;
16796;SDS011;8515;51.064;4.580;2022-09-09T11:31:56;6.93;;;2.10;;
16796;SDS011;8515;51.064;4.580;2022-09-09T11:34:36;5.22;;;1.85;;
16796;SDS011;8515;51.064;4.580;2022-09-09T11:37:21;10.48;;;2.50;;
16796;SDS011;8515;51.064;4.580;2022-09-09T11:43:00;4.57;;;1.30;;
16796;SDS011;8515;51.064;4.580;2022-09-09T11:45:29;6.35;;;1.90;;
16796;SDS011;8515;51.064;4.580;2022-09-09T11:47:59;5.70;;;1.80;;
16796;SDS011;8515;51.064;4.580;2022-09-09T11:50:28;8.07;;;2.05;;
16796;SDS011;8515;51.064;4.580;2022-09-09T11:53:05;7.88;;;1.85;;
16796;SDS011;8515;51.064;4.580;2022-09-09T11:55:46;8.23;;;1.70;;
16796;SDS011;8515;51.064;4.580;2022-09-09T11:58:17;4.80;;;1.23;;
16796;SDS011;8515;51.064;4.580;2022-09-09T12:00:46;5.47;;;1.45;;
16796;SDS011;8515;51.064;4.580;2022-09-09T12:06:11;4.72;;;1.67;;
16796;SDS011;8515;51.064;4.580;2022-09-09T12:08:42;5.07;;;1.48;;
16796;SDS011;8515;51.064;4.580;2022-09-09T12:11:22;5.07;;;1.33;;
16796;SDS011;8515;51.064;4.580;2022-09-09T12:13:53;4.93;;;1.77;;
16796;SDS011;8515;51.064;4.580;2022-09-09T12:16:28;7.90;;;1.90;;
16796;SDS011;8515;51.064;4.580;2022-09-09T12:19:12;13.57;;;2.55;;
16796;SDS011;8515;51.064;4.580;2022-09-09T12:21:44;5.70;;;2.00;;
16796;SDS011;8515;51.064;4.580;2022-09-09T12:24:17;5.15;;;1.80;;
16796;SDS011;8515;51.064;4.580;2022-09-09T12:26:55;4.55;;;1.45;;
16796;SDS011;8515;51.064;4.580;2022-09-09T12:29:30;5.03;;;1.80;;
16796;SDS011;8515;51.064;4.580;2022-09-09T12:32:06;4.57;;;1.60;;
16796;SDS011;8515;51.064;4.580;2022-09-09T12:34:40;7.72;;;1.90;;
16796;SDS011;8515;51.064;4.580;2022-09-09T12:37:12;4.80;;;1.48;;
16796;SDS011;8515;51.064;4.580;2022-09-09T12:39:49;6.25;;;1.65;;
16796;SDS011;8515;51.064;4.580;2022-09-09T12:42:20;5.18;;;1.45;;
16796;SDS011;8515;51.064;4.580;2022-09-09T12:44:52;5.90;;;1.60;;
16796;SDS011;8515;51.064;4.580;2022-09-09T12:47:20;7.40;;;2.10;;
16796;SDS011;8515;51.064;4.580;2022-09-09T12:49:51;4.95;;;1.67;;
16796;SDS011;8515;51.064;4.580;2022-09-09T12:52:23;5.15;;;1.65;;
16796;SDS011;8515;51.064;4.580;2022-09-09T12:54:55;8.07;;;1.90;;
16796;SDS011;8515;51.064;4.580;2022-09-09T12:57:23;7.40;;;1.80;;
16796;SDS011;8515;51.064;4.580;2022-09-09T12:59:52;8.10;;;2.28;;
16796;SDS011;8515;51.064;4.580;2022-09-09T13:02:30;3.20;;;1.42;;
16796;SDS011;8515;51.064;4.580;2022-09-09T13:05:09;5.63;;;1.70;;
16796;SDS011;8515;51.064;4.580;2022-09-09T13:07:42;4.20;;;1.38;;
16796;SDS011;8515;51.064;4.580;2022-09-09T13:10:10;6.70;;;1.50;;
16796;SDS011;8515;51.064;4.580;2022-09-09T13:12:38;4.60;;;1.38;;
16796;SDS011;8515;51.064;4.580;2022-09-09T13:15:10;6.13;;;1.70;;
16796;SDS011;8515;51.064;4.580;2022-09-09T13:17:51;4.72;;;2.05;;
16796;SDS011;8515;51.064;4.580;2022-09-09T13:20:22;5.05;;;1.80;;
16796;SDS011;8515;51.064;4.580;2022-09-09T13:22:50;4.65;;;1.65;;
16796;SDS011;8515;51.064;4.580;2022-09-09T13:25:20;8.73;;;2.10;;
16796;SDS011;8515;51.064;4.580;2022-09-09T13:27:52;8.38;;;2.00;;
16796;SDS011;8515;51.064;4.580;2022-09-09T13:30:22;9.05;;;2.28;;
16796;SDS011;8515;51.064;4.580;2022-09-09T13:33:01;3.15;;;1.48;;
16796;SDS011;8515;51.064;4.580;2022-09-09T13:35:31;3.20;;;1.70;;
16796;SDS011;8515;51.064;4.580;2022-09-09T13:37:59;4.90;;;1.67;;
16796;SDS011;8515;51.064;4.580;2022-09-09T13:40:33;3.97;;;1.65;;
16796;SDS011;8515;51.064;4.580;2022-09-09T13:43:01;6.45;;;1.63;;
16796;SDS011;8515;51.064;4.580;2022-09-09T13:45:30;4.53;;;1.73;;
16796;SDS011;8515;51.064;4.580;2022-09-09T13:48:01;4.35;;;1.30;;
16796;SDS011;8515;51.064;4.580;2022-09-09T13:50:37;4.32;;;1.42;;
16796;SDS011;8515;51.064;4.580;2022-09-09T13:53:04;4.15;;;1.58;;
16796;SDS011;8515;51.064;4.580;2022-09-09T13:55:34;4.63;;;1.95;;
16796;SDS011;8515;51.064;4.580;2022-09-09T13:58:04;5.28;;;1.80;;
16796;SDS011;8515;51.064;4.580;2022-09-09T14:00:32;7.03;;;1.83;;
16796;SDS011;8515;51.064;4.580;2022-09-09T14:03:00;3.63;;;1.40;;
16796;SDS011;8515;51.064;4.580;2022-09-09T14:05:27;5.32;;;1.67;;
16796;SDS011;8515;51.064;4.580;2022-09-09T14:07:58;3.67;;;1.52;;
16796;SDS011;8515;51.064;4.580;2022-09-09T14:10:26;5.43;;;1.95;;
16796;SDS011;8515;51.064;4.580;2022-09-09T14:12:53;5.88;;;2.00;;
16796;SDS011;8515;51.064;4.580;2022-09-09T14:15:19;4.47;;;1.67;;
16796;SDS011;8515;51.064;4.580;2022-09-09T14:17:47;7.38;;;2.10;;
16796;SDS011;8515;51.064;4.580;2022-09-09T14:20:13;3.75;;;1.50;;
16796;SDS011;8515;51.064;4.580;2022-09-09T14:22:42;7.15;;;1.83;;
16796;SDS011;8515;51.064;4.580;2022-09-09T14:25:11;7.05;;;1.95;;
16796;SDS011;8515;51.064;4.580;2022-09-09T14:27:39;5.68;;;1.52;;
16796;SDS011;8515;51.064;4.580;2022-09-09T14:30:07;5.63;;;1.63;;
16796;SDS011;8515;51.064;4.580;2022-09-09T14:32:35;4.28;;;1.55;;
16796;SDS011;8515;51.064;4.580;2022-09-09T14:35:02;5.97;;;1.65;;
16796;SDS011;8515;51.064;4.580;2022-09-09T14:37:30;2.38;;;1.33;;
16796;SDS011;8515;51.064;4.580;2022-09-09T14:39:57;4.10;;;1.23;;
16796;SDS011;8515;51.064;4.580;2022-09-09T14:42:25;6.55;;;1.67;;
16796;SDS011;8515;51.064;4.580;2022-09-09T14:44:54;3.28;;;1.40;;
16796;SDS011;8515;51.064;4.580;2022-09-09T14:47:21;2.83;;;1.10;;
16796;SDS011;8515;51.064;4.580;2022-09-09T14:49:48;3.45;;;1.33;;
16796;SDS011;8515;51.064;4.580;2022-09-09T14:52:15;4.80;;;1.20;;
16796;SDS011;8515;51.064;4.580;2022-09-09T14:54:42;4.00;;;1.00;;
16796;SDS011;8515;51.064;4.580;2022-09-09T14:57:09;1.75;;;1.35;;
16796;SDS011;8515;51.064;4.580;2022-09-09T14:59:37;5.47;;;1.30;;
16796;SDS011;8515;51.064;4.580;2022-09-09T15:02:04;3.30;;;1.15;;
16796;SDS011;8515;51.064;4.580;2022-09-09T15:04:31;5.68;;;1.42;;
16796;SDS011;8515;51.064;4.580;2022-09-09T15:06:58;4.55;;;1.63;;
16796;SDS011;8515;51.064;4.580;2022-09-09T15:09:25;5.32;;;1.55;;
16796;SDS011;8515;51.064;4.580;2022-09-09T15:11:52;6.85;;;1.88;;
16796;SDS011;8515;51.064;4.580;2022-09-09T15:14:19;6.18;;;2.30;;
16796;SDS011;8515;51.064;4.580;2022-09-09T15:16:47;5.75;;;1.75;;
16796;SDS011;8515;51.064;4.580;2022-09-09T15:19:14;3.58;;;1.48;;
16796;SDS011;8515;51.064;4.580;2022-09-09T15:21:41;3.75;;;1.80;;
16796;SDS011;8515;51.064;4.580;2022-09-09T15:24:08;3.80;;;1.80;;